sensor_id;sensor_type;location;lat;lon;timestamp;P1;durP1;ratioP1;P2;durP2;ratioP2
13872;SDS011;7006;51.494;11.964;2023-10-13T00:00:37;23.73;;;16.00;;
13872;SDS011;7006;51.494;11.964;2023-10-13T00:03:09;21.27;;;15.47;;
13872;SDS011;7006;51.494;11.964;2023-10-13T00:05:40;22.57;;;16.33;;
13872;SDS011;7006;51.494;11.964;2023-10-13T00:08:08;22.13;;;14.90;;
13872;SDS011;7006;51.494;11.964;2023-10-13T00:10:37;20.63;;;15.50;;
13872;SDS011;7006;51.494;11.964;2023-10-13T00:13:05;20.23;;;15.70;;
13872;SDS011;7006;51.494;11.964;2023-10-13T00:15:38;18.90;;;15.17;;
13872;SDS011;7006;51.494;11.964;2023-10-13T00:18:13;21.37;;;14.87;;
13872;SDS011;7006;51.494;11.964;2023-10-13T00:20:44;19.73;;;15.30;;
13872;SDS011;7006;51.494;11.964;2023-10-13T00:23:15;21.93;;;14.97;;
13872;SDS011;7006;51.494;11.964;2023-10-13T00:25:46;22.33;;;16.10;;
13872;SDS011;7006;51.494;11.964;2023-10-13T00:28:15;19.87;;;14.90;;
13872;SDS011;7006;51.494;11.964;2023-10-13T00:30:48;25.10;;;14.73;;
13872;SDS011;7006;51.494;11.964;2023-10-13T00:33:20;20.10;;;14.80;;
13872;SDS011;7006;51.494;11.964;2023-10-13T00:35:49;22.33;;;14.13;;
13872;SDS011;7006;51.494;11.964;2023-10-13T00:38:19;20.60;;;14.83;;
13872;SDS011;7006;51.494;11.964;2023-10-13T00:40:48;16.87;;;13.63;;
13872;SDS011;7006;51.494;11.964;2023-10-13T00:43:19;19.63;;;14.20;;
13872;SDS011;7006;51.494;11.964;2023-10-13T00:46:00;16.37;;;12.90;;
13872;SDS011;7006;51.494;11.964;2023-10-13T00:48:40;15.00;;;13.40;;
13872;SDS011;7006;51.494;11.964;2023-10-13T00:51:17;20.30;;;14.17;;
13872;SDS011;7006;51.494;11.964;2023-10-13T00:53:57;19.47;;;13.97;;
13872;SDS011;7006;51.494;11.964;2023-10-13T00:56:23;18.23;;;13.47;;
13872;SDS011;7006;51.494;11.964;2023-10-13T00:58:52;18.33;;;12.87;;
13872;SDS011;7006;51.494;11.964;2023-10-13T01:01:18;18.30;;;14.33;;
13872;SDS011;7006;51.494;11.964;2023-10-13T01:03:49;18.00;;;14.70;;
13872;SDS011;7006;51.494;11.964;2023-10-13T01:06:16;17.90;;;13.30;;
13872;SDS011;7006;51.494;11.964;2023-10-13T01:08:45;16.77;;;13.90;;
13872;SDS011;7006;51.494;11.964;2023-10-13T01:11:15;19.70;;;13.20;;
13872;SDS011;7006;51.494;11.964;2023-10-13T01:13:44;20.10;;;13.57;;
13872;SDS011;7006;51.494;11.964;2023-10-13T01:16:09;16.33;;;13.80;;
13872;SDS011;7006;51.494;11.964;2023-10-13T01:18:37;16.43;;;13.53;;
13872;SDS011;7006;51.494;11.964;2023-10-13T01:21:14;16.33;;;13.70;;
13872;SDS011;7006;51.494;11.964;2023-10-13T01:23:48;17.60;;;13.50;;
13872;SDS011;7006;51.494;11.964;2023-10-13T01:26:15;22.00;;;14.57;;
13872;SDS011;7006;51.494;11.964;2023-10-13T01:28:48;17.53;;;14.00;;
13872;SDS011;7006;51.494;11.964;2023-10-13T01:31:14;16.73;;;14.17;;
13872;SDS011;7006;51.494;11.964;2023-10-13T01:33:50;18.30;;;13.90;;
13872;SDS011;7006;51.494;11.964;2023-10-13T01:36:19;18.70;;;14.90;;
13872;SDS011;7006;51.494;11.964;2023-10-13T01:38:45;18.87;;;13.93;;
13872;SDS011;7006;51.494;11.964;2023-10-13T01:41:15;21.53;;;14.17;;
13872;SDS011;7006;51.494;11.964;2023-10-13T01:43:43;18.60;;;14.23;;
13872;SDS011;7006;51.494;11.964;2023-10-13T01:46:09;23.70;;;16.00;;
13872;SDS011;7006;51.494;11.964;2023-10-13T01:48:38;16.37;;;13.60;;
13872;SDS011;7006;51.494;11.964;2023-10-13T01:51:05;22.87;;;15.30;;
13872;SDS011;7006;51.494;11.964;2023-10-13T01:53:35;19.23;;;14.13;;
13872;SDS011;7006;51.494;11.964;2023-10-13T01:56:01;16.57;;;14.00;;
13872;SDS011;7006;51.494;11.964;2023-10-13T01:58:33;19.13;;;15.10;;
13872;SDS011;7006;51.494;11.964;2023-10-13T02:00:59;16.53;;;13.77;;
13872;SDS011;7006;51.494;11.964;2023-10-13T02:03:27;18.47;;;14.10;;
13872;SDS011;7006;51.494;11.964;2023-10-13T02:05:55;22.27;;;14.30;;
13872;SDS011;7006;51.494;11.964;2023-10-13T02:08:29;17.00;;;12.90;;
13872;SDS011;7006;51.494;11.964;2023-10-13T02:10:55;17.00;;;13.30;;
13872;SDS011;7006;51.494;11.964;2023-10-13T02:13:24;16.13;;;13.00;;
13872;SDS011;7006;51.494;11.964;2023-10-13T02:15:55;15.60;;;13.47;;
13872;SDS011;7006;51.494;11.964;2023-10-13T02:18:28;18.40;;;12.97;;
13872;SDS011;7006;51.494;11.964;2023-10-13T02:21:02;18.53;;;14.17;;
13872;SDS011;7006;51.494;11.964;2023-10-13T02:23:30;16.03;;;13.03;;
13872;SDS011;7006;51.494;11.964;2023-10-13T02:25:56;15.93;;;12.97;;
13872;SDS011;7006;51.494;11.964;2023-10-13T02:28:37;15.80;;;13.60;;
13872;SDS011;7006;51.494;11.964;2023-10-13T02:31:05;17.33;;;13.80;;
13872;SDS011;7006;51.494;11.964;2023-10-13T02:33:34;16.23;;;12.10;;
13872;SDS011;7006;51.494;11.964;2023-10-13T02:36:00;15.17;;;12.17;;
13872;SDS011;7006;51.494;11.964;2023-10-13T02:38:30;15.10;;;12.83;;
13872;SDS011;7006;51.494;11.964;2023-10-13T02:41:09;13.60;;;10.97;;
13872;SDS011;7006;51.494;11.964;2023-10-13T02:43:44;16.30;;;12.33;;
13872;SDS011;7006;51.494;11.964;2023-10-13T02:46:12;16.53;;;11.40;;
13872;SDS011;7006;51.494;11.964;2023-10-13T02:48:41;13.97;;;11.43;;
13872;SDS011;7006;51.494;11.964;2023-10-13T02:51:07;15.07;;;12.17;;
13872;SDS011;7006;51.494;11.964;2023-10-13T02:53:43;14.93;;;12.23;;
13872;SDS011;7006;51.494;11.964;2023-10-13T02:56:12;14.40;;;10.63;;
13872;SDS011;7006;51.494;11.964;2023-10-13T02:58:45;13.87;;;11.57;;
13872;SDS011;7006;51.494;11.964;2023-10-13T03:01:20;15.70;;;11.63;;
13872;SDS011;7006;51.494;11.964;2023-10-13T03:03:53;13.53;;;11.27;;
13872;SDS011;7006;51.494;11.964;2023-10-13T03:06:19;14.90;;;11.40;;
13872;SDS011;7006;51.494;11.964;2023-10-13T03:08:57;12.70;;;10.87;;
13872;SDS011;7006;51.494;11.964;2023-10-13T03:11:25;14.53;;;11.30;;
13872;SDS011;7006;51.494;11.964;2023-10-13T03:13:58;12.37;;;10.60;;
13872;SDS011;7006;51.494;11.964;2023-10-13T03:16:26;15.00;;;10.80;;
13872;SDS011;7006;51.494;11.964;2023-10-13T03:18:55;15.50;;;11.80;;
13872;SDS011;7006;51.494;11.964;2023-10-13T03:21:22;13.80;;;10.63;;
13872;SDS011;7006;51.494;11.964;2023-10-13T03:23:56;14.90;;;11.27;;
13872;SDS011;7006;51.494;11.964;2023-10-13T03:26:23;12.60;;;10.27;;
13872;SDS011;7006;51.494;11.964;2023-10-13T03:28:52;13.90;;;10.83;;
13872;SDS011;7006;51.494;11.964;2023-10-13T03:31:22;13.77;;;10.27;;
13872;SDS011;7006;51.494;11.964;2023-10-13T03:33:55;12.70;;;10.10;;
13872;SDS011;7006;51.494;11.964;2023-10-13T03:36:25;12.90;;;10.10;;
13872;SDS011;7006;51.494;11.964;2023-10-13T03:39:21;12.33;;;9.63;;
13872;SDS011;7006;51.494;11.964;2023-10-13T03:41:53;13.80;;;10.33;;
13872;SDS011;7006;51.494;11.964;2023-10-13T03:44:21;16.03;;;11.43;;
13872;SDS011;7006;51.494;11.964;2023-10-13T03:46:55;15.63;;;11.57;;
13872;SDS011;7006;51.494;11.964;2023-10-13T03:49:36;13.50;;;10.97;;
13872;SDS011;7006;51.494;11.964;2023-10-13T03:52:05;17.10;;;10.43;;
13872;SDS011;7006;51.494;11.964;2023-10-13T03:54:38;13.10;;;10.57;;
13872;SDS011;7006;51.494;11.964;2023-10-13T03:57:06;13.10;;;11.40;;
13872;SDS011;7006;51.494;11.964;2023-10-13T03:59:36;12.87;;;10.63;;
13872;SDS011;7006;51.494;11.964;2023-10-13T04:02:05;17.07;;;10.53;;
13872;SDS011;7006;51.494;11.964;2023-10-13T04:04:42;13.60;;;10.83;;
13872;SDS011;7006;51.494;11.964;2023-10-13T04:07:14;14.67;;;10.47;;
13872;SDS011;7006;51.494;11.964;2023-10-13T04:10:05;12.90;;;10.47;;
13872;SDS011;7006;51.494;11.964;2023-10-13T04:12:47;13.23;;;11.00;;
13872;SDS011;7006;51.494;11.964;2023-10-13T04:15:27;12.50;;;10.47;;
13872;SDS011;7006;51.494;11.964;2023-10-13T04:18:02;12.40;;;9.97;;
13872;SDS011;7006;51.494;11.964;2023-10-13T04:20:52;14.17;;;10.63;;
13872;SDS011;7006;51.494;11.964;2023-10-13T04:23:32;15.93;;;11.60;;
13872;SDS011;7006;51.494;11.964;2023-10-13T04:26:22;11.97;;;10.63;;
13872;SDS011;7006;51.494;11.964;2023-10-13T04:28:48;13.03;;;11.33;;
13872;SDS011;7006;51.494;11.964;2023-10-13T04:31:21;12.47;;;10.40;;
13872;SDS011;7006;51.494;11.964;2023-10-13T04:34:02;12.10;;;9.90;;
13872;SDS011;7006;51.494;11.964;2023-10-13T04:36:42;15.30;;;11.87;;
13872;SDS011;7006;51.494;11.964;2023-10-13T04:39:10;15.90;;;12.50;;
13872;SDS011;7006;51.494;11.964;2023-10-13T04:41:45;18.13;;;13.77;;
13872;SDS011;7006;51.494;11.964;2023-10-13T04:44:23;19.73;;;12.97;;
13872;SDS011;7006;51.494;11.964;2023-10-13T04:47:13;19.47;;;14.00;;
13872;SDS011;7006;51.494;11.964;2023-10-13T04:49:43;17.20;;;11.73;;
13872;SDS011;7006;51.494;11.964;2023-10-13T04:52:20;15.20;;;12.23;;
13872;SDS011;7006;51.494;11.964;2023-10-13T04:55:01;18.80;;;12.80;;
13872;SDS011;7006;51.494;11.964;2023-10-13T04:57:42;15.00;;;11.37;;
13872;SDS011;7006;51.494;11.964;2023-10-13T05:00:12;18.17;;;11.87;;
13872;SDS011;7006;51.494;11.964;2023-10-13T05:02:53;15.70;;;11.90;;
13872;SDS011;7006;51.494;11.964;2023-10-13T05:05:43;16.33;;;11.50;;
13872;SDS011;7006;51.494;11.964;2023-10-13T05:08:38;14.20;;;11.43;;
13872;SDS011;7006;51.494;11.964;2023-10-13T05:11:18;15.00;;;11.07;;
13872;SDS011;7006;51.494;11.964;2023-10-13T05:13:59;14.57;;;11.07;;
13872;SDS011;7006;51.494;11.964;2023-10-13T05:16:39;18.00;;;10.90;;
13872;SDS011;7006;51.494;11.964;2023-10-13T05:19:20;12.37;;;10.53;;
13872;SDS011;7006;51.494;11.964;2023-10-13T05:22:00;11.90;;;10.63;;
13872;SDS011;7006;51.494;11.964;2023-10-13T05:24:43;13.80;;;10.90;;
13872;SDS011;7006;51.494;11.964;2023-10-13T05:27:24;12.83;;;11.20;;
13872;SDS011;7006;51.494;11.964;2023-10-13T05:30:05;13.10;;;10.93;;
13872;SDS011;7006;51.494;11.964;2023-10-13T05:32:46;15.10;;;10.60;;
13872;SDS011;7006;51.494;11.964;2023-10-13T05:35:26;12.60;;;10.60;;
13872;SDS011;7006;51.494;11.964;2023-10-13T05:38:07;16.10;;;12.10;;
13872;SDS011;7006;51.494;11.964;2023-10-13T05:40:56;12.93;;;11.33;;
13872;SDS011;7006;51.494;11.964;2023-10-13T05:43:37;14.27;;;10.87;;
13872;SDS011;7006;51.494;11.964;2023-10-13T05:46:17;13.93;;;11.93;;
13872;SDS011;7006;51.494;11.964;2023-10-13T05:49:03;14.03;;;11.57;;
13872;SDS011;7006;51.494;11.964;2023-10-13T05:51:52;16.97;;;11.63;;
13872;SDS011;7006;51.494;11.964;2023-10-13T05:54:23;14.47;;;11.67;;
13872;SDS011;7006;51.494;11.964;2023-10-13T05:57:06;14.40;;;12.13;;
13872;SDS011;7006;51.494;11.964;2023-10-13T05:59:47;14.03;;;11.20;;
13872;SDS011;7006;51.494;11.964;2023-10-13T06:02:27;13.80;;;10.40;;
13872;SDS011;7006;51.494;11.964;2023-10-13T06:05:13;15.80;;;12.27;;
13872;SDS011;7006;51.494;11.964;2023-10-13T06:07:54;13.03;;;11.03;;
13872;SDS011;7006;51.494;11.964;2023-10-13T06:10:36;13.80;;;11.67;;
13872;SDS011;7006;51.494;11.964;2023-10-13T06:13:19;14.53;;;12.23;;
13872;SDS011;7006;51.494;11.964;2023-10-13T06:15:59;17.20;;;12.93;;
13872;SDS011;7006;51.494;11.964;2023-10-13T06:18:40;17.90;;;13.07;;
13872;SDS011;7006;51.494;11.964;2023-10-13T06:21:21;16.10;;;11.97;;
13872;SDS011;7006;51.494;11.964;2023-10-13T06:24:07;14.70;;;11.50;;
13872;SDS011;7006;51.494;11.964;2023-10-13T06:26:49;14.77;;;11.13;;
13872;SDS011;7006;51.494;11.964;2023-10-13T06:29:32;14.10;;;11.10;;
13872;SDS011;7006;51.494;11.964;2023-10-13T06:32:00;14.40;;;11.53;;
13872;SDS011;7006;51.494;11.964;2023-10-13T06:34:35;14.13;;;11.53;;
13872;SDS011;7006;51.494;11.964;2023-10-13T06:37:09;13.57;;;11.13;;
13872;SDS011;7006;51.494;11.964;2023-10-13T06:39:47;14.60;;;10.43;;
13872;SDS011;7006;51.494;11.964;2023-10-13T06:42:16;11.20;;;9.47;;
13872;SDS011;7006;51.494;11.964;2023-10-13T06:44:47;12.07;;;9.17;;
13872;SDS011;7006;51.494;11.964;2023-10-13T06:47:16;11.03;;;9.77;;
13872;SDS011;7006;51.494;11.964;2023-10-13T06:49:45;11.00;;;9.30;;
13872;SDS011;7006;51.494;11.964;2023-10-13T06:52:16;13.73;;;11.73;;
13872;SDS011;7006;51.494;11.964;2023-10-13T06:54:44;16.30;;;10.17;;
13872;SDS011;7006;51.494;11.964;2023-10-13T06:57:12;16.20;;;9.40;;
13872;SDS011;7006;51.494;11.964;2023-10-13T06:59:48;16.67;;;11.43;;
13872;SDS011;7006;51.494;11.964;2023-10-13T07:02:18;15.03;;;10.93;;
13872;SDS011;7006;51.494;11.964;2023-10-13T07:04:48;14.30;;;11.27;;
13872;SDS011;7006;51.494;11.964;2023-10-13T07:07:22;14.00;;;11.00;;
13872;SDS011;7006;51.494;11.964;2023-10-13T07:09:50;12.60;;;10.90;;
13872;SDS011;7006;51.494;11.964;2023-10-13T07:12:20;11.60;;;10.17;;
13872;SDS011;7006;51.494;11.964;2023-10-13T07:14:54;13.33;;;9.67;;
13872;SDS011;7006;51.494;11.964;2023-10-13T07:17:36;11.43;;;10.23;;
13872;SDS011;7006;51.494;11.964;2023-10-13T07:20:06;12.73;;;9.70;;
13872;SDS011;7006;51.494;11.964;2023-10-13T07:22:40;11.63;;;9.23;;
13872;SDS011;7006;51.494;11.964;2023-10-13T07:25:20;11.20;;;9.03;;
13872;SDS011;7006;51.494;11.964;2023-10-13T07:27:50;11.10;;;8.10;;
13872;SDS011;7006;51.494;11.964;2023-10-13T07:30:21;9.93;;;8.77;;
13872;SDS011;7006;51.494;11.964;2023-10-13T07:32:51;15.63;;;8.70;;
13872;SDS011;7006;51.494;11.964;2023-10-13T07:35:23;11.37;;;8.93;;
13872;SDS011;7006;51.494;11.964;2023-10-13T07:37:51;12.37;;;9.43;;
13872;SDS011;7006;51.494;11.964;2023-10-13T07:40:20;10.40;;;8.40;;
13872;SDS011;7006;51.494;11.964;2023-10-13T07:43:05;11.83;;;9.10;;
13872;SDS011;7006;51.494;11.964;2023-10-13T07:45:38;11.27;;;9.37;;
13872;SDS011;7006;51.494;11.964;2023-10-13T07:48:07;10.83;;;8.27;;
13872;SDS011;7006;51.494;11.964;2023-10-13T07:50:37;13.40;;;9.87;;
13872;SDS011;7006;51.494;11.964;2023-10-13T07:53:06;13.80;;;9.47;;
13872;SDS011;7006;51.494;11.964;2023-10-13T07:55:46;10.90;;;9.27;;
13872;SDS011;7006;51.494;11.964;2023-10-13T07:58:20;11.90;;;8.97;;
13872;SDS011;7006;51.494;11.964;2023-10-13T08:00:52;10.13;;;8.63;;
13872;SDS011;7006;51.494;11.964;2023-10-13T08:03:31;10.93;;;8.10;;
13872;SDS011;7006;51.494;11.964;2023-10-13T08:06:00;11.40;;;8.33;;
13872;SDS011;7006;51.494;11.964;2023-10-13T08:08:45;13.10;;;8.57;;
13872;SDS011;7006;51.494;11.964;2023-10-13T08:11:15;11.40;;;8.67;;
13872;SDS011;7006;51.494;11.964;2023-10-13T08:13:50;11.67;;;9.10;;
13872;SDS011;7006;51.494;11.964;2023-10-13T08:16:28;11.27;;;8.67;;
13872;SDS011;7006;51.494;11.964;2023-10-13T08:19:11;11.60;;;8.80;;
13872;SDS011;7006;51.494;11.964;2023-10-13T08:21:40;12.33;;;8.30;;
13872;SDS011;7006;51.494;11.964;2023-10-13T08:24:14;11.00;;;7.60;;
13872;SDS011;7006;51.494;11.964;2023-10-13T08:26:50;9.23;;;7.77;;
13872;SDS011;7006;51.494;11.964;2023-10-13T08:29:30;9.30;;;8.27;;
13872;SDS011;7006;51.494;11.964;2023-10-13T08:32:13;11.20;;;7.90;;
13872;SDS011;7006;51.494;11.964;2023-10-13T08:34:49;9.20;;;8.17;;
13872;SDS011;7006;51.494;11.964;2023-10-13T08:37:35;10.60;;;7.53;;
13872;SDS011;7006;51.494;11.964;2023-10-13T08:40:12;9.63;;;7.23;;
13872;SDS011;7006;51.494;11.964;2023-10-13T08:43:09;10.70;;;8.00;;
13872;SDS011;7006;51.494;11.964;2023-10-13T08:45:37;8.60;;;7.30;;
13872;SDS011;7006;51.494;11.964;2023-10-13T08:48:26;10.57;;;7.73;;
13872;SDS011;7006;51.494;11.964;2023-10-13T08:50:59;10.40;;;8.43;;
13872;SDS011;7006;51.494;11.964;2023-10-13T08:53:56;13.37;;;8.50;;
13872;SDS011;7006;51.494;11.964;2023-10-13T08:56:33;9.80;;;8.13;;
13872;SDS011;7006;51.494;11.964;2023-10-13T08:59:19;10.07;;;8.20;;
13872;SDS011;7006;51.494;11.964;2023-10-13T09:01:48;10.63;;;8.17;;
13872;SDS011;7006;51.494;11.964;2023-10-13T09:04:27;10.60;;;8.23;;
13872;SDS011;7006;51.494;11.964;2023-10-13T09:06:59;12.40;;;7.73;;
13872;SDS011;7006;51.494;11.964;2023-10-13T09:09:46;11.40;;;8.47;;
13872;SDS011;7006;51.494;11.964;2023-10-13T09:12:25;11.43;;;8.40;;
13872;SDS011;7006;51.494;11.964;2023-10-13T09:15:01;11.20;;;8.00;;
13872;SDS011;7006;51.494;11.964;2023-10-13T09:17:30;13.40;;;8.03;;
13872;SDS011;7006;51.494;11.964;2023-10-13T09:20:06;11.83;;;8.10;;
13872;SDS011;7006;51.494;11.964;2023-10-13T09:22:56;12.17;;;7.67;;
13872;SDS011;7006;51.494;11.964;2023-10-13T09:25:33;9.80;;;7.77;;
13872;SDS011;7006;51.494;11.964;2023-10-13T09:28:00;11.00;;;8.07;;
13872;SDS011;7006;51.494;11.964;2023-10-13T09:30:28;11.50;;;8.07;;
13872;SDS011;7006;51.494;11.964;2023-10-13T09:32:59;15.43;;;8.93;;
13872;SDS011;7006;51.494;11.964;2023-10-13T09:35:29;12.67;;;8.87;;
13872;SDS011;7006;51.494;11.964;2023-10-13T09:37:59;10.17;;;8.00;;
13872;SDS011;7006;51.494;11.964;2023-10-13T09:40:27;12.53;;;8.83;;
13872;SDS011;7006;51.494;11.964;2023-10-13T09:42:59;9.57;;;7.93;;
13872;SDS011;7006;51.494;11.964;2023-10-13T09:45:31;17.83;;;9.47;;
13872;SDS011;7006;51.494;11.964;2023-10-13T09:48:01;13.97;;;9.63;;
13872;SDS011;7006;51.494;11.964;2023-10-13T09:50:34;12.97;;;8.70;;
13872;SDS011;7006;51.494;11.964;2023-10-13T09:53:06;12.37;;;8.37;;
13872;SDS011;7006;51.494;11.964;2023-10-13T09:55:36;12.07;;;8.63;;
13872;SDS011;7006;51.494;11.964;2023-10-13T09:58:04;9.87;;;8.20;;
13872;SDS011;7006;51.494;11.964;2023-10-13T10:00:40;12.07;;;8.40;;
13872;SDS011;7006;51.494;11.964;2023-10-13T10:03:21;12.17;;;8.07;;
13872;SDS011;7006;51.494;11.964;2023-10-13T10:06:07;13.70;;;8.17;;
13872;SDS011;7006;51.494;11.964;2023-10-13T10:08:39;14.67;;;8.73;;
13872;SDS011;7006;51.494;11.964;2023-10-13T10:11:23;13.27;;;8.00;;
13872;SDS011;7006;51.494;11.964;2023-10-13T10:13:52;9.87;;;7.27;;
13872;SDS011;7006;51.494;11.964;2023-10-13T10:19:11;13.33;;;7.80;;
13872;SDS011;7006;51.494;11.964;2023-10-13T10:21:42;11.53;;;8.13;;
13872;SDS011;7006;51.494;11.964;2023-10-13T10:24:14;10.73;;;8.13;;
13872;SDS011;7006;51.494;11.964;2023-10-13T10:26:52;15.70;;;7.80;;
13872;SDS011;7006;51.494;11.964;2023-10-13T10:29:20;11.83;;;7.03;;
13872;SDS011;7006;51.494;11.964;2023-10-13T10:31:48;12.10;;;8.27;;
13872;SDS011;7006;51.494;11.964;2023-10-13T10:34:16;12.77;;;8.30;;
13872;SDS011;7006;51.494;11.964;2023-10-13T10:36:54;8.87;;;7.17;;
13872;SDS011;7006;51.494;11.964;2023-10-13T10:39:32;11.20;;;8.13;;
13872;SDS011;7006;51.494;11.964;2023-10-13T10:42:10;13.97;;;8.43;;
13872;SDS011;7006;51.494;11.964;2023-10-13T10:44:42;15.90;;;7.60;;
13872;SDS011;7006;51.494;11.964;2023-10-13T10:47:13;15.97;;;8.27;;
13872;SDS011;7006;51.494;11.964;2023-10-13T10:49:44;10.73;;;7.13;;
13872;SDS011;7006;51.494;11.964;2023-10-13T10:52:16;18.70;;;8.50;;
13872;SDS011;7006;51.494;11.964;2023-10-13T10:54:46;11.03;;;6.83;;
13872;SDS011;7006;51.494;11.964;2023-10-13T10:57:17;15.90;;;7.63;;
13872;SDS011;7006;51.494;11.964;2023-10-13T10:59:45;10.90;;;7.67;;
13872;SDS011;7006;51.494;11.964;2023-10-13T11:02:33;15.20;;;7.57;;
13872;SDS011;7006;51.494;11.964;2023-10-13T11:05:01;14.47;;;7.20;;
13872;SDS011;7006;51.494;11.964;2023-10-13T11:07:34;13.60;;;8.20;;
13872;SDS011;7006;51.494;11.964;2023-10-13T11:10:08;10.37;;;6.73;;
13872;SDS011;7006;51.494;11.964;2023-10-13T11:12:53;11.93;;;7.23;;
13872;SDS011;7006;51.494;11.964;2023-10-13T11:15:21;13.73;;;7.40;;
13872;SDS011;7006;51.494;11.964;2023-10-13T11:17:59;14.43;;;7.77;;
13872;SDS011;7006;51.494;11.964;2023-10-13T11:20:30;13.93;;;7.10;;
13872;SDS011;7006;51.494;11.964;2023-10-13T11:23:13;18.47;;;7.50;;
13872;SDS011;7006;51.494;11.964;2023-10-13T11:25:41;13.17;;;7.73;;
13872;SDS011;7006;51.494;11.964;2023-10-13T11:28:10;10.80;;;7.03;;
13872;SDS011;7006;51.494;11.964;2023-10-13T11:30:42;14.40;;;6.83;;
13872;SDS011;7006;51.494;11.964;2023-10-13T11:33:14;13.43;;;7.10;;
13872;SDS011;7006;51.494;11.964;2023-10-13T11:35:44;16.23;;;7.10;;
13872;SDS011;7006;51.494;11.964;2023-10-13T11:38:30;12.20;;;7.53;;
13872;SDS011;7006;51.494;11.964;2023-10-13T11:41:10;10.90;;;7.17;;
13872;SDS011;7006;51.494;11.964;2023-10-13T11:43:44;10.00;;;6.87;;
13872;SDS011;7006;51.494;11.964;2023-10-13T11:46:18;11.03;;;6.83;;
13872;SDS011;7006;51.494;11.964;2023-10-13T11:49:07;10.40;;;7.47;;
13872;SDS011;7006;51.494;11.964;2023-10-13T11:51:43;11.23;;;6.97;;
13872;SDS011;7006;51.494;11.964;2023-10-13T11:54:15;11.27;;;6.77;;
13872;SDS011;7006;51.494;11.964;2023-10-13T11:56:41;17.40;;;7.17;;
13872;SDS011;7006;51.494;11.964;2023-10-13T11:59:09;16.40;;;8.30;;
13872;SDS011;7006;51.494;11.964;2023-10-13T12:01:44;11.77;;;6.30;;
13872;SDS011;7006;51.494;11.964;2023-10-13T12:04:25;11.83;;;6.93;;
13872;SDS011;7006;51.494;11.964;2023-10-13T12:07:05;13.30;;;6.27;;
13872;SDS011;7006;51.494;11.964;2023-10-13T12:09:47;11.67;;;6.30;;
13872;SDS011;7006;51.494;11.964;2023-10-13T12:12:28;11.70;;;6.60;;
13872;SDS011;7006;51.494;11.964;2023-10-13T12:14:56;12.27;;;6.30;;
13872;SDS011;7006;51.494;11.964;2023-10-13T12:17:34;11.13;;;5.73;;
13872;SDS011;7006;51.494;11.964;2023-10-13T12:20:05;11.80;;;6.80;;
13872;SDS011;7006;51.494;11.964;2023-10-13T12:22:35;10.90;;;6.30;;
13872;SDS011;7006;51.494;11.964;2023-10-13T12:25:07;13.20;;;6.40;;
13872;SDS011;7006;51.494;11.964;2023-10-13T12:27:50;13.20;;;6.23;;
13872;SDS011;7006;51.494;11.964;2023-10-13T12:30:22;12.00;;;6.30;;
13872;SDS011;7006;51.494;11.964;2023-10-13T12:33:01;12.30;;;6.77;;
13872;SDS011;7006;51.494;11.964;2023-10-13T12:35:34;11.77;;;5.77;;
13872;SDS011;7006;51.494;11.964;2023-10-13T12:38:10;10.83;;;6.60;;
13872;SDS011;7006;51.494;11.964;2023-10-13T12:41:06;9.83;;;6.27;;
13872;SDS011;7006;51.494;11.964;2023-10-13T12:43:47;13.43;;;6.80;;
13872;SDS011;7006;51.494;11.964;2023-10-13T12:46:28;11.27;;;6.40;;
13872;SDS011;7006;51.494;11.964;2023-10-13T12:49:08;12.43;;;7.10;;
13872;SDS011;7006;51.494;11.964;2023-10-13T12:52:02;11.30;;;6.53;;
13872;SDS011;7006;51.494;11.964;2023-10-13T12:54:30;11.57;;;7.17;;
13872;SDS011;7006;51.494;11.964;2023-10-13T12:57:06;10.97;;;7.47;;
13872;SDS011;7006;51.494;11.964;2023-10-13T12:59:35;10.80;;;6.93;;
13872;SDS011;7006;51.494;11.964;2023-10-13T13:02:04;12.10;;;6.50;;
13872;SDS011;7006;51.494;11.964;2023-10-13T13:04:34;17.20;;;7.83;;
13872;SDS011;7006;51.494;11.964;2023-10-13T13:07:02;11.10;;;6.77;;
13872;SDS011;7006;51.494;11.964;2023-10-13T13:09:30;11.73;;;6.80;;
13872;SDS011;7006;51.494;11.964;2023-10-13T13:12:02;10.97;;;6.50;;
13872;SDS011;7006;51.494;11.964;2023-10-13T13:14:34;10.40;;;6.60;;
13872;SDS011;7006;51.494;11.964;2023-10-13T13:17:05;15.50;;;7.60;;
13872;SDS011;7006;51.494;11.964;2023-10-13T13:19:34;13.23;;;6.63;;
13872;SDS011;7006;51.494;11.964;2023-10-13T13:22:04;12.70;;;7.03;;
13872;SDS011;7006;51.494;11.964;2023-10-13T13:24:36;12.10;;;7.43;;
13872;SDS011;7006;51.494;11.964;2023-10-13T13:27:08;12.20;;;7.07;;
13872;SDS011;7006;51.494;11.964;2023-10-13T13:29:41;11.70;;;7.20;;
13872;SDS011;7006;51.494;11.964;2023-10-13T13:32:09;11.40;;;7.37;;
13872;SDS011;7006;51.494;11.964;2023-10-13T13:34:44;8.70;;;6.43;;
13872;SDS011;7006;51.494;11.964;2023-10-13T13:37:19;13.00;;;6.67;;
13872;SDS011;7006;51.494;11.964;2023-10-13T13:39:47;11.27;;;7.10;;
13872;SDS011;7006;51.494;11.964;2023-10-13T13:42:18;9.50;;;6.80;;
13872;SDS011;7006;51.494;11.964;2023-10-13T13:44:48;13.17;;;6.60;;
13872;SDS011;7006;51.494;11.964;2023-10-13T13:47:16;13.23;;;6.70;;
13872;SDS011;7006;51.494;11.964;2023-10-13T13:49:44;9.57;;;5.83;;
13872;SDS011;7006;51.494;11.964;2023-10-13T13:52:16;8.57;;;6.70;;
13872;SDS011;7006;51.494;11.964;2023-10-13T13:54:46;9.40;;;6.13;;
13872;SDS011;7006;51.494;11.964;2023-10-13T13:57:15;12.20;;;7.27;;
13872;SDS011;7006;51.494;11.964;2023-10-13T13:59:43;12.63;;;6.50;;
13872;SDS011;7006;51.494;11.964;2023-10-13T14:02:14;7.53;;;5.27;;
13872;SDS011;7006;51.494;11.964;2023-10-13T14:04:48;17.10;;;6.60;;
13872;SDS011;7006;51.494;11.964;2023-10-13T14:07:17;13.43;;;6.50;;
13872;SDS011;7006;51.494;11.964;2023-10-13T14:09:49;12.93;;;6.20;;
13872;SDS011;7006;51.494;11.964;2023-10-13T14:12:30;8.97;;;6.07;;
13872;SDS011;7006;51.494;11.964;2023-10-13T14:15:07;9.50;;;6.07;;
13872;SDS011;7006;51.494;11.964;2023-10-13T14:17:47;10.40;;;7.10;;
13872;SDS011;7006;51.494;11.964;2023-10-13T14:20:16;10.47;;;6.20;;
13872;SDS011;7006;51.494;11.964;2023-10-13T14:22:46;10.07;;;5.93;;
13872;SDS011;7006;51.494;11.964;2023-10-13T14:25:17;8.80;;;5.77;;
13872;SDS011;7006;51.494;11.964;2023-10-13T14:27:49;10.23;;;6.27;;
13872;SDS011;7006;51.494;11.964;2023-10-13T14:30:17;13.03;;;6.77;;
13872;SDS011;7006;51.494;11.964;2023-10-13T14:32:50;14.33;;;6.60;;
13872;SDS011;7006;51.494;11.964;2023-10-13T14:35:23;11.30;;;5.80;;
13872;SDS011;7006;51.494;11.964;2023-10-13T14:37:51;9.83;;;5.10;;
13872;SDS011;7006;51.494;11.964;2023-10-13T14:40:19;14.53;;;6.80;;
13872;SDS011;7006;51.494;11.964;2023-10-13T14:42:48;8.57;;;5.80;;
13872;SDS011;7006;51.494;11.964;2023-10-13T14:45:16;13.67;;;6.00;;
13872;SDS011;7006;51.494;11.964;2023-10-13T14:47:45;13.67;;;5.70;;
13872;SDS011;7006;51.494;11.964;2023-10-13T14:50:15;10.80;;;5.87;;
13872;SDS011;7006;51.494;11.964;2023-10-13T14:52:47;10.63;;;6.00;;
13872;SDS011;7006;51.494;11.964;2023-10-13T14:55:15;8.57;;;5.63;;
13872;SDS011;7006;51.494;11.964;2023-10-13T14:58:03;12.80;;;5.70;;
13872;SDS011;7006;51.494;11.964;2023-10-13T15:00:33;11.00;;;6.20;;
13872;SDS011;7006;51.494;11.964;2023-10-13T15:03:01;13.27;;;6.37;;
13872;SDS011;7006;51.494;11.964;2023-10-13T15:05:36;9.43;;;6.10;;
13872;SDS011;7006;51.494;11.964;2023-10-13T15:08:08;13.07;;;6.20;;
13872;SDS011;7006;51.494;11.964;2023-10-13T15:10:36;14.00;;;7.33;;